Time;durP1;ratioP1;P1;durP2;ratioP2;P2;SDS_P1;SDS_P2;PMS_P1;PMS_P2;Temp;Humidity;BMP_temperature;BMP_pressure;BME280_temperature;BME280_humidity;BME280_pressure;Samples;Min_cycle;Max_cycle;Signal;HPM_P1;HPM_P2
2022/03/28 00:00:05;;;;;;;10.55;2.60;;;;;;;;;;5043458;28;20040;-64
2022/03/28 00:02:32;;;;;;;5.50;2.30;;;;;;;;;;5042748;28;20048;-64
2022/03/28 00:04:58;;;;;;;5.00;1.88;;;;;;;;;;5043541;28;20067;-64
2022/03/28 00:07:24;;;;;;;10.52;2.60;;;;;;;;;;5025939;28;20055;-64
2022/03/28 00:09:50;;;;;;;13.45;2.83;;;;;;;;;;5043882;28;20048;-64
2022/03/28 00:12:16;;;;;;;9.85;2.50;;;;;;;;;;5025245;28;20063;-64
2022/03/28 00:14:43;;;;;;;11.35;2.65;;;;;;;;;;5043241;28;20710;-64
2022/03/28 00:17:09;;;;;;;8.52;2.88;;;;;;;;;;5043548;28;20060;-64
2022/03/28 00:19:35;;;;;;;12.05;2.72;;;;;;;;;;5025025;28;20597;-64
2022/03/28 00:22:01;;;;;;;13.95;2.97;;;;;;;;;;5039262;28;20468;-63
2022/03/28 00:24:27;;;;;;;9.60;2.90;;;;;;;;;;5043064;28;20544;-64
2022/03/28 00:26:55;;;;;;;15.35;3.28;;;;;;;;;;5043579;28;20541;-64
2022/03/28 00:29:21;;;;;;;15.10;3.63;;;;;;;;;;5042766;28;20574;-64
2022/03/28 00:31:48;;;;;;;15.02;3.97;;;;;;;;;;5042989;28;20049;-64
2022/03/28 00:34:15;;;;;;;17.35;3.67;;;;;;;;;;5043452;28;20076;-64
2022/03/28 00:36:42;;;;;;;15.98;4.10;;;;;;;;;;5042961;28;20304;-64
2022/03/28 00:39:08;;;;;;;12.38;3.55;;;;;;;;;;5043068;28;20888;-63
2022/03/28 00:41:34;;;;;;;24.27;4.50;;;;;;;;;;5043164;28;20045;-63
2022/03/28 00:44:00;;;;;;;18.15;4.45;;;;;;;;;;5042522;28;20037;-64
2022/03/28 00:46:27;;;;;;;14.43;4.65;;;;;;;;;;5042784;28;20037;-63
2022/03/28 00:48:54;;;;;;;12.27;4.05;;;;;;;;;;5043702;28;20175;-65
2022/03/28 00:51:22;;;;;;;19.73;4.60;;;;;;;;;;5042815;28;20040;-64
2022/03/28 00:53:50;;;;;;;20.87;5.70;;;;;;;;;;5024980;28;20487;-64
2022/03/28 00:56:16;;;;;;;21.98;4.75;;;;;;;;;;5024762;28;20057;-64
2022/03/28 00:58:42;;;;;;;15.90;6.07;;;;;;;;;;5042548;28;20120;-64
2022/03/28 01:01:09;;;;;;;17.33;5.43;;;;;;;;;;5042888;28;20501;-64
2022/03/28 01:03:36;;;;;;;23.38;6.15;;;;;;;;;;5042530;28;20053;-64
2022/03/28 01:06:03;;;;;;;24.38;5.70;;;;;;;;;;5024743;28;20045;-64
2022/03/28 01:08:29;;;;;;;16.88;6.70;;;;;;;;;;5042693;28;20080;-64
2022/03/28 01:10:57;;;;;;;42.97;7.82;;;;;;;;;;5042627;28;20473;-64
2022/03/28 01:13:24;;;;;;;27.15;7.05;;;;;;;;;;5044192;28;20057;-64
2022/03/28 01:15:50;;;;;;;74.82;8.80;;;;;;;;;;5046638;28;20045;-64
2022/03/28 01:18:16;;;;;;;57.08;8.82;;;;;;;;;;5046802;28;20094;-64
2022/03/28 01:20:42;;;;;;;26.95;8.48;;;;;;;;;;5046411;28;20463;-64
2022/03/28 01:23:10;;;;;;;25.10;8.60;;;;;;;;;;5046780;28;20406;-64
2022/03/28 01:25:36;;;;;;;25.20;9.63;;;;;;;;;;5046224;28;20372;-63
2022/03/28 01:28:03;;;;;;;27.73;10.05;;;;;;;;;;5038032;28;20040;-64
2022/03/28 01:30:30;;;;;;;36.67;9.75;;;;;;;;;;5046108;28;20486;-64
2022/03/28 01:32:57;;;;;;;54.80;9.40;;;;;;;;;;5045888;28;20049;-64
2022/03/28 01:35:31;;;;;;;25.23;8.23;;;;;;;;;;5046706;28;20502;-64
2022/03/28 01:37:57;;;;;;;51.50;9.88;;;;;;;;;;5046252;28;20414;-63
2022/03/28 01:40:24;;;;;;;87.95;9.73;;;;;;;;;;5047047;28;20073;-64
2022/03/28 01:42:50;;;;;;;40.00;8.90;;;;;;;;;;5027913;28;20056;-64
2022/03/28 01:45:18;;;;;;;32.88;10.05;;;;;;;;;;5046203;28;20178;-64
2022/03/28 01:47:44;;;;;;;74.73;11.73;;;;;;;;;;5045861;28;20123;-64
2022/03/28 01:50:11;;;;;;;32.22;9.38;;;;;;;;;;5045772;28;20292;-64
2022/03/28 01:52:37;;;;;;;41.88;9.00;;;;;;;;;;5045683;28;20086;-64
2022/03/28 01:55:04;;;;;;;31.48;9.27;;;;;;;;;;5046031;28;20391;-64
2022/03/28 01:57:30;;;;;;;29.30;9.23;;;;;;;;;;5027231;28;20538;-64
2022/03/28 01:59:56;;;;;;;51.38;9.68;;;;;;;;;;5046375;28;20119;-64
2022/03/28 02:02:22;;;;;;;106.13;11.88;;;;;;;;;;5046090;28;20071;-64
2022/03/28 02:04:48;;;;;;;37.10;9.05;;;;;;;;;;5045375;28;20498;-64
2022/03/28 02:07:16;;;;;;;42.05;9.20;;;;;;;;;;5045669;28;20053;-64
2022/03/28 02:09:42;;;;;;;71.05;11.25;;;;;;;;;;5041532;28;20502;-64
2022/03/28 02:12:08;;;;;;;23.63;10.02;;;;;;;;;;5045166;28;20043;-64
2022/03/28 02:14:34;;;;;;;99.10;12.93;;;;;;;;;;5045434;28;20041;-64
2022/03/28 02:17:00;;;;;;;55.83;12.80;;;;;;;;;;5045477;28;20067;-64
2022/03/28 02:19:27;;;;;;;55.70;12.23;;;;;;;;;;5027521;28;20102;-64
2022/03/28 02:21:53;;;;;;;44.47;13.18;;;;;;;;;;5045917;28;20495;-64
2022/03/28 02:24:19;;;;;;;45.72;12.13;;;;;;;;;;5044745;28;20666;-64
2022/03/28 02:26:45;;;;;;;43.35;12.93;;;;;;;;;;5044881;28;20041;-64
2022/03/28 02:29:11;;;;;;;41.40;13.65;;;;;;;;;;5044341;28;20040;-64
2022/03/28 02:31:37;;;;;;;64.97;15.68;;;;;;;;;;5027328;28;20044;-64
2022/03/28 02:34:04;;;;;;;102.50;15.38;;;;;;;;;;5045086;28;20041;-64
2022/03/28 02:36:30;;;;;;;78.07;13.70;;;;;;;;;;5041184;28;20045;-64
2022/03/28 02:38:56;;;;;;;86.15;14.57;;;;;;;;;;5045326;28;20502;-64
2022/03/28 02:41:22;;;;;;;55.15;13.60;;;;;;;;;;5045536;28;20487;-64
2022/03/28 02:43:49;;;;;;;55.75;15.18;;;;;;;;;;5044605;28;20045;-64
2022/03/28 02:46:15;;;;;;;59.35;14.43;;;;;;;;;;5044661;28;20103;-64
2022/03/28 02:48:42;;;;;;;34.85;12.15;;;;;;;;;;5044071;28;20402;-64
2022/03/28 02:51:08;;;;;;;44.55;12.43;;;;;;;;;;5044644;28;20475;-64
2022/03/28 02:53:34;;;;;;;35.35;11.40;;;;;;;;;;5044767;28;20395;-64
2022/03/28 02:56:00;;;;;;;37.58;11.93;;;;;;;;;;5044804;28;20132;-64
2022/03/28 02:58:26;;;;;;;51.75;11.75;;;;;;;;;;5043896;28;20398;-64
2022/03/28 03:00:53;;;;;;;29.65;11.93;;;;;;;;;;5027531;28;20047;-64
2022/03/28 03:03:19;;;;;;;35.10;11.30;;;;;;;;;;5044494;28;20478;-64
2022/03/28 03:05:46;;;;;;;26.77;11.68;;;;;;;;;;5044298;28;20107;-64
2022/03/28 03:08:12;;;;;;;21.30;10.23;;;;;;;;;;5044668;28;20041;-64
2022/03/28 03:10:38;;;;;;;32.72;11.10;;;;;;;;;;5044506;28;20067;-64
2022/03/28 03:13:05;;;;;;;21.52;10.63;;;;;;;;;;5043654;28;20052;-64
2022/03/28 03:15:32;;;;;;;30.23;11.18;;;;;;;;;;5044041;28;20040;-64
2022/03/28 03:17:58;;;;;;;23.65;10.40;;;;;;;;;;5044383;28;20037;-64
2022/03/28 03:20:24;;;;;;;28.73;11.55;;;;;;;;;;5022982;28;20048;-64
2022/03/28 03:22:50;;;;;;;32.30;12.55;;;;;;;;;;5026946;28;20055;-64
2022/03/28 03:25:16;;;;;;;36.88;11.00;;;;;;;;;;5043724;28;20460;-64
2022/03/28 03:27:43;;;;;;;20.55;10.15;;;;;;;;;;5043211;28;20433;-64
2022/03/28 03:30:10;;;;;;;31.25;11.13;;;;;;;;;;5044043;28;20119;-64
2022/03/28 03:32:36;;;;;;;23.88;10.65;;;;;;;;;;5043834;28;20064;-64
2022/03/28 03:35:04;;;;;;;31.58;10.75;;;;;;;;;;5044314;28;20517;-64
2022/03/28 03:37:30;;;;;;;31.55;10.73;;;;;;;;;;5026049;28;20526;-64
2022/03/28 03:39:56;;;;;;;29.02;11.32;;;;;;;;;;5043962;28;20037;-64
2022/03/28 03:42:22;;;;;;;28.40;11.15;;;;;;;;;;5043681;28;20139;-64
2022/03/28 03:44:48;;;;;;;32.78;11.45;;;;;;;;;;5043297;28;20063;-64
2022/03/28 03:47:15;;;;;;;28.58;12.50;;;;;;;;;;5043550;28;20691;-64
2022/03/28 03:49:41;;;;;;;22.80;11.05;;;;;;;;;;5043643;28;20041;-64
2022/03/28 03:52:07;;;;;;;28.38;11.20;;;;;;;;;;5043387;28;20131;-64
2022/03/28 03:54:33;;;;;;;31.77;11.52;;;;;;;;;;5043718;28;20044;-64
2022/03/28 03:57:00;;;;;;;32.00;11.43;;;;;;;;;;5042766;28;20409;-64
2022/03/28 03:59:26;;;;;;;27.73;11.65;;;;;;;;;;5043867;28;20112;-64
2022/03/28 04:01:52;;;;;;;33.17;12.30;;;;;;;;;;5044080;28;20091;-64
2022/03/28 04:04:18;;;;;;;24.73;11.88;;;;;;;;;;5017842;28;20179;-64
2022/03/28 04:06:45;;;;;;;29.77;11.88;;;;;;;;;;5023355;28;20076;-64
2022/03/28 04:09:11;;;;;;;48.50;12.65;;;;;;;;;;5023827;28;20053;-64
2022/03/28 04:11:37;;;;;;;36.53;12.13;;;;;;;;;;5019448;28;20483;-64
2022/03/28 04:14:03;;;;;;;29.98;12.18;;;;;;;;;;5023677;28;20048;-64
2022/03/28 04:16:29;;;;;;;27.10;12.48;;;;;;;;;;5023427;28;20052;-63
2022/03/28 04:18:56;;;;;;;27.88;12.40;;;;;;;;;;5024006;28;20644;-64
2022/03/28 04:21:22;;;;;;;25.58;12.05;;;;;;;;;;5023958;28;20053;-64
2022/03/28 04:23:48;;;;;;;22.83;11.95;;;;;;;;;;5022916;28;20183;-64
2022/03/28 04:26:14;;;;;;;21.38;10.73;;;;;;;;;;5023275;28;20488;-64
2022/03/28 04:28:40;;;;;;;21.08;10.25;;;;;;;;;;5017411;28;20041;-65
2022/03/28 04:31:07;;;;;;;20.63;10.77;;;;;;;;;;5023480;28;20052;-65
2022/03/28 04:33:33;;;;;;;21.50;10.77;;;;;;;;;;5023246;28;20487;-64
2022/03/28 04:35:59;;;;;;;24.75;10.57;;;;;;;;;;5023601;28;20399;-64
2022/03/28 04:38:26;;;;;;;26.17;11.70;;;;;;;;;;5023195;28;20041;-64
2022/03/28 04:40:53;;;;;;;25.98;11.77;;;;;;;;;;5023627;28;20081;-64
2022/03/28 04:43:20;;;;;;;21.17;11.25;;;;;;;;;;5021908;28;20041;-64
2022/03/28 04:45:46;;;;;;;25.35;12.25;;;;;;;;;;5023224;28;20034;-64
2022/03/28 04:48:12;;;;;;;25.38;12.45;;;;;;;;;;5024683;28;20049;-64
2022/03/28 04:50:39;;;;;;;26.00;12.98;;;;;;;;;;5026766;28;20430;-64
2022/03/28 04:53:05;;;;;;;30.98;13.05;;;;;;;;;;5027304;28;20068;-64
2022/03/28 04:55:31;;;;;;;27.85;13.35;;;;;;;;;;5026749;28;20037;-64
2022/03/28 04:57:57;;;;;;;27.30;13.38;;;;;;;;;;5026522;28;20091;-64
2022/03/28 05:00:23;;;;;;;28.88;13.38;;;;;;;;;;5027288;28;20067;-65
2022/03/28 05:02:50;;;;;;;27.98;13.70;;;;;;;;;;5025659;28;20073;-65
2022/03/28 05:05:16;;;;;;;32.95;14.88;;;;;;;;;;5043823;28;20045;-66
2022/03/28 05:07:42;;;;;;;34.33;16.17;;;;;;;;;;5024945;28;20560;-65
2022/03/28 05:10:09;;;;;;;30.40;13.95;;;;;;;;;;5046767;28;20053;-65
2022/03/28 05:12:35;;;;;;;32.58;15.30;;;;;;;;;;5045868;28;20063;-65
2022/03/28 05:15:01;;;;;;;34.28;16.00;;;;;;;;;;5046985;28;20037;-64
2022/03/28 05:17:29;;;;;;;35.85;16.42;;;;;;;;;;5046360;28;20501;-64
2022/03/28 05:19:56;;;;;;;42.45;16.95;;;;;;;;;;5045890;28;20656;-65
2022/03/28 05:22:22;;;;;;;33.20;16.02;;;;;;;;;;5046727;28;20447;-64
2022/03/28 05:24:49;;;;;;;38.55;16.83;;;;;;;;;;5046187;28;20041;-65
2022/03/28 05:27:15;;;;;;;40.25;15.77;;;;;;;;;;5027742;28;20158;-64
2022/03/28 05:29:42;;;;;;;36.63;15.65;;;;;;;;;;5028697;28;20060;-65
2022/03/28 05:32:08;;;;;;;28.75;12.73;;;;;;;;;;5046616;28;20052;-65
2022/03/28 05:34:35;;;;;;;28.05;12.73;;;;;;;;;;5046036;28;20048;-65
2022/03/28 05:37:02;;;;;;;25.80;12.40;;;;;;;;;;5046597;28;20041;-64
2022/03/28 05:39:28;;;;;;;22.98;11.52;;;;;;;;;;5045781;28;20032;-64
2022/03/28 05:41:55;;;;;;;28.33;10.52;;;;;;;;;;5045621;28;20053;-65
2022/03/28 05:44:21;;;;;;;27.77;10.73;;;;;;;;;;5041892;28;20090;-65
2022/03/28 05:46:48;;;;;;;21.75;10.93;;;;;;;;;;5041976;28;20376;-65
2022/03/28 05:49:15;;;;;;;37.63;11.75;;;;;;;;;;5045945;28;20179;-65
2022/03/28 05:51:42;;;;;;;26.60;10.23;;;;;;;;;;5040848;28;20049;-65
2022/03/28 05:54:08;;;;;;;25.98;10.60;;;;;;;;;;5045961;28;20138;-65
2022/03/28 05:56:34;;;;;;;30.48;10.63;;;;;;;;;;5044776;28;20045;-65
2022/03/28 05:59:02;;;;;;;28.48;10.63;;;;;;;;;;5044580;28;20471;-65
2022/03/28 06:01:29;;;;;;;30.40;10.38;;;;;;;;;;5044938;28;20119;-64
2022/03/28 06:03:55;;;;;;;25.52;9.13;;;;;;;;;;5045350;28;20082;-65
2022/03/28 06:06:21;;;;;;;29.27;9.70;;;;;;;;;;5028398;28;20049;-63
2022/03/28 06:08:48;;;;;;;30.27;10.35;;;;;;;;;;5045412;28;20400;-65
2022/03/28 06:11:14;;;;;;;29.75;10.30;;;;;;;;;;5045684;28;20068;-64
2022/03/28 06:13:42;;;;;;;24.77;10.25;;;;;;;;;;5043646;28;20041;-64
2022/03/28 06:16:08;;;;;;;19.23;8.40;;;;;;;;;;5045016;28;20969;-64
2022/03/28 06:18:34;;;;;;;17.20;7.55;;;;;;;;;;5044983;28;20099;-64
2022/03/28 06:21:01;;;;;;;16.85;7.13;;;;;;;;;;5045318;28;20071;-63
2022/03/28 06:23:27;;;;;;;17.48;7.10;;;;;;;;;;5044800;28;20088;-64
2022/03/28 06:25:53;;;;;;;25.88;7.10;;;;;;;;;;5046092;28;20554;-64
2022/03/28 06:28:19;;;;;;;16.33;6.95;;;;;;;;;;5044367;28;20047;-63
2022/03/28 06:30:45;;;;;;;17.00;6.22;;;;;;;;;;5045015;28;20041;-64
2022/03/28 06:33:12;;;;;;;11.48;5.65;;;;;;;;;;5045473;28;20765;-64
2022/03/28 06:35:38;;;;;;;14.73;5.63;;;;;;;;;;5044314;28;20528;-64
2022/03/28 06:38:05;;;;;;;11.07;4.00;;;;;;;;;;5044869;28;20174;-64
2022/03/28 06:40:31;;;;;;;6.15;3.00;;;;;;;;;;5044907;28;20613;-64
2022/03/28 06:42:57;;;;;;;6.38;3.15;;;;;;;;;;5044502;28;20075;-64
2022/03/28 06:45:23;;;;;;;10.40;4.55;;;;;;;;;;5041372;28;20041;-63
2022/03/28 06:47:51;;;;;;;5.78;2.20;;;;;;;;;;5045377;28;20057;-64
2022/03/28 06:50:19;;;;;;;4.93;2.50;;;;;;;;;;5044850;28;20037;-64
2022/03/28 06:52:45;;;;;;;7.72;2.25;;;;;;;;;;5044049;28;20074;-63
2022/03/28 06:55:11;;;;;;;6.22;2.50;;;;;;;;;;5044991;28;20045;-64
2022/03/28 06:57:38;;;;;;;11.13;2.38;;;;;;;;;;5043711;28;20036;-64
2022/03/28 07:00:05;;;;;;;5.55;2.38;;;;;;;;;;5044963;28;20171;-64
2022/03/28 07:02:31;;;;;;;6.78;2.35;;;;;;;;;;5044367;28;20115;-64
2022/03/28 07:04:57;;;;;;;5.88;2.75;;;;;;;;;;5044261;28;20093;-64
2022/03/28 07:07:24;;;;;;;7.38;2.67;;;;;;;;;;5045044;28;20375;-64
2022/03/28 07:09:50;;;;;;;9.23;3.10;;;;;;;;;;5027504;28;20467;-64
2022/03/28 07:12:16;;;;;;;6.15;2.92;;;;;;;;;;5043020;28;20033;-64
2022/03/28 07:14:45;;;;;;;6.68;2.72;;;;;;;;;;5044311;28;20124;-63
2022/03/28 07:17:11;;;;;;;7.45;3.15;;;;;;;;;;5044201;28;20045;-64
2022/03/28 07:19:37;;;;;;;8.50;3.45;;;;;;;;;;5043981;28;20041;-64
2022/03/28 07:22:04;;;;;;;8.88;3.97;;;;;;;;;;5044489;28;21233;-64
2022/03/28 07:24:30;;;;;;;8.85;3.80;;;;;;;;;;5040536;28;20119;-64
2022/03/28 07:26:56;;;;;;;8.95;3.53;;;;;;;;;;5025704;28;20084;-64
2022/03/28 07:29:23;;;;;;;9.68;3.72;;;;;;;;;;5044214;28;20107;-64
2022/03/28 07:31:49;;;;;;;9.00;3.95;;;;;;;;;;5044494;28;20603;-64
2022/03/28 07:36:57;;;;;;;11.00;4.28;;;;;;;;;;5044232;28;20080;-64
2022/03/28 07:39:24;;;;;;;11.65;5.30;;;;;;;;;;5044590;28;20052;-64
2022/03/28 07:41:51;;;;;;;10.60;4.63;;;;;;;;;;5043562;28;20049;-64
2022/03/28 07:44:18;;;;;;;9.93;4.93;;;;;;;;;;5043438;28;20685;-64
2022/03/28 07:46:45;;;;;;;11.45;5.13;;;;;;;;;;5025979;28;20103;-64
2022/03/28 07:49:17;;;;;;;12.07;4.70;;;;;;;;;;5044205;28;20045;-64
2022/03/28 07:51:43;;;;;;;11.60;5.13;;;;;;;;;;5043192;28;20072;-64
2022/03/28 07:54:09;;;;;;;10.80;5.22;;;;;;;;;;5043937;28;20120;-64
2022/03/28 07:56:36;;;;;;;13.15;5.80;;;;;;;;;;5043074;28;20037;-64
2022/03/28 07:59:02;;;;;;;12.57;5.13;;;;;;;;;;5043710;28;20069;-64
2022/03/28 08:01:29;;;;;;;15.48;5.82;;;;;;;;;;5042507;28;20840;-64
2022/03/28 08:03:55;;;;;;;17.15;6.20;;;;;;;;;;5043571;28;20052;-65
2022/03/28 08:06:21;;;;;;;16.65;6.88;;;;;;;;;;5044087;28;20045;-64
2022/03/28 08:08:48;;;;;;;21.42;6.82;;;;;;;;;;5043280;28;20417;-64
2022/03/28 08:11:15;;;;;;;16.58;7.18;;;;;;;;;;5042671;28;20148;-64
2022/03/28 08:13:41;;;;;;;17.02;6.57;;;;;;;;;;5042900;28;20041;-64
2022/03/28 08:16:08;;;;;;;19.35;6.88;;;;;;;;;;5043572;28;20041;-64
2022/03/28 08:18:37;;;;;;;16.52;6.50;;;;;;;;;;5042857;28;20044;-64
2022/03/28 08:21:03;;;;;;;19.67;7.15;;;;;;;;;;5043323;28;20491;-64
2022/03/28 08:23:30;;;;;;;14.73;6.30;;;;;;;;;;5042669;28;20547;-64
2022/03/28 08:25:56;;;;;;;16.77;8.23;;;;;;;;;;5024920;28;20493;-64
2022/03/28 08:28:23;;;;;;;15.55;6.43;;;;;;;;;;5043595;28;20056;-63
2022/03/28 08:30:49;;;;;;;16.33;6.60;;;;;;;;;;5043269;28;20049;-64
2022/03/28 08:33:15;;;;;;;19.92;6.97;;;;;;;;;;5043363;28;20075;-64
2022/03/28 08:35:42;;;;;;;21.02;7.32;;;;;;;;;;5043080;28;20068;-64
2022/03/28 08:38:08;;;;;;;21.73;7.75;;;;;;;;;;5042585;28;20095;-64
2022/03/28 08:40:35;;;;;;;15.75;6.50;;;;;;;;;;5042702;28;20048;-64
2022/03/28 08:43:04;;;;;;;20.88;7.18;;;;;;;;;;5042599;28;20044;-64
2022/03/28 08:45:31;;;;;;;11.98;5.68;;;;;;;;;;5043104;28;20049;-64
2022/03/28 08:47:58;;;;;;;14.25;6.93;;;;;;;;;;5042945;28;20052;-64
2022/03/28 08:50:24;;;;;;;17.42;7.00;;;;;;;;;;5043691;28;20041;-64
2022/03/28 08:52:50;;;;;;;17.25;6.95;;;;;;;;;;5042989;28;20429;-64
2022/03/28 08:55:17;;;;;;;18.95;7.30;;;;;;;;;;5042664;28;20037;-64
2022/03/28 08:57:43;;;;;;;18.13;7.40;;;;;;;;;;5041762;28;20048;-64
2022/03/28 09:00:10;;;;;;;16.35;6.68;;;;;;;;;;5042961;28;20123;-64
2022/03/28 09:02:37;;;;;;;17.70;7.30;;;;;;;;;;5042839;28;20041;-64
2022/03/28 09:05:04;;;;;;;16.20;6.40;;;;;;;;;;5043045;28;20059;-65
2022/03/28 09:07:30;;;;;;;15.27;6.53;;;;;;;;;;5042603;28;20080;-65
2022/03/28 09:09:58;;;;;;;17.17;6.97;;;;;;;;;;5042613;28;20506;-65
2022/03/28 09:12:25;;;;;;;18.02;7.28;;;;;;;;;;5042330;28;20067;-64
2022/03/28 09:14:56;;;;;;;17.27;7.25;;;;;;;;;;5043279;28;20506;-65
2022/03/28 09:17:22;;;;;;;14.93;6.55;;;;;;;;;;5042811;28;20104;-65
2022/03/28 09:19:50;;;;;;;14.65;6.22;;;;;;;;;;5042691;28;20048;-64
2022/03/28 09:22:18;;;;;;;16.30;6.47;;;;;;;;;;5043110;28;20049;-64
2022/03/28 09:24:45;;;;;;;17.35;6.68;;;;;;;;;;5042369;28;20666;-65
2022/03/28 09:27:12;;;;;;;15.93;6.72;;;;;;;;;;5041697;28;20047;-65
2022/03/28 09:29:57;;;;;;;16.45;6.97;;;;;;;;;;5041787;28;20077;-65
2022/03/28 09:32:24;;;;;;;18.00;6.82;;;;;;;;;;5042863;28;20040;-65
2022/03/28 09:35:01;;;;;;;16.25;5.80;;;;;;;;;;5044482;28;20073;-64
2022/03/28 09:37:28;;;;;;;14.95;6.53;;;;;;;;;;5045949;28;20033;-64
2022/03/28 09:39:54;;;;;;;15.82;6.55;;;;;;;;;;5046235;28;20072;-64
2022/03/28 09:42:20;;;;;;;15.82;6.95;;;;;;;;;;5045590;28;20048;-64
2022/03/28 09:44:50;;;;;;;19.02;7.63;;;;;;;;;;5045878;28;20048;-64
2022/03/28 09:47:17;;;;;;;15.05;6.97;;;;;;;;;;5028177;28;20044;-64
2022/03/28 09:49:45;;;;;;;14.05;6.63;;;;;;;;;;5045600;28;20544;-64
2022/03/28 09:52:12;;;;;;;17.48;7.50;;;;;;;;;;5042084;28;20041;-64
2022/03/28 09:54:52;;;;;;;15.60;6.82;;;;;;;;;;5045667;28;20116;-64
2022/03/28 09:57:20;;;;;;;15.25;6.00;;;;;;;;;;5045209;28;20052;-64
2022/03/28 09:59:47;;;;;;;19.17;8.50;;;;;;;;;;5045249;28;20048;-64
2022/03/28 10:02:15;;;;;;;16.58;7.70;;;;;;;;;;5045629;28;20052;-64
2022/03/28 10:04:44;;;;;;;21.83;7.90;;;;;;;;;;5045222;28;20511;-65
2022/03/28 10:07:10;;;;;;;16.67;7.80;;;;;;;;;;5044534;28;20055;-63
2022/03/28 10:09:37;;;;;;;19.73;8.65;;;;;;;;;;5045022;28;20049;-64
2022/03/28 10:12:04;;;;;;;19.13;7.82;;;;;;;;;;5044159;28;20494;-64
2022/03/28 10:14:31;;;;;;;18.55;8.23;;;;;;;;;;5041414;28;20461;-64
2022/03/28 10:16:57;;;;;;;19.38;7.97;;;;;;;;;;5045008;28;20041;-64
2022/03/28 10:19:23;;;;;;;17.90;8.38;;;;;;;;;;5045195;28;20530;-64
2022/03/28 10:21:50;;;;;;;16.25;8.60;;;;;;;;;;5043455;28;20615;-64
2022/03/28 10:24:22;;;;;;;21.23;8.70;;;;;;;;;;5044786;28;20041;-64
2022/03/28 10:26:52;;;;;;;18.23;8.43;;;;;;;;;;5044336;28;20053;-64
2022/03/28 10:29:21;;;;;;;18.02;8.52;;;;;;;;;;5045266;28;20033;-64
2022/03/28 10:31:54;;;;;;;17.55;8.20;;;;;;;;;;5040927;28;20087;-64
2022/03/28 10:34:39;;;;;;;20.65;8.52;;;;;;;;;;5033305;28;20176;-64
2022/03/28 10:37:24;;;;;;;15.82;8.18;;;;;;;;;;5028403;28;20536;-64
2022/03/28 10:39:51;;;;;;;23.42;9.15;;;;;;;;;;5016002;28;20530;-64
2022/03/28 10:42:19;;;;;;;19.02;9.40;;;;;;;;;;5024937;28;20045;-64
2022/03/28 10:44:46;;;;;;;18.63;9.77;;;;;;;;;;5029691;28;20078;-64
2022/03/28 10:47:14;;;;;;;21.20;9.25;;;;;;;;;;5035851;28;20082;-64
2022/03/28 10:49:42;;;;;;;21.83;8.98;;;;;;;;;;5033400;28;20617;-64
2022/03/28 10:52:11;;;;;;;19.95;9.55;;;;;;;;;;5034198;28;20041;-63
2022/03/28 10:54:38;;;;;;;20.27;9.23;;;;;;;;;;5033223;28;20487;-64
2022/03/28 10:57:04;;;;;;;20.02;9.13;;;;;;;;;;5035055;28;20041;-64
2022/03/28 10:59:31;;;;;;;21.45;9.52;;;;;;;;;;5029506;28;20041;-63
2022/03/28 11:01:57;;;;;;;23.58;10.13;;;;;;;;;;5033460;28;20056;-63
2022/03/28 11:04:24;;;;;;;19.25;10.05;;;;;;;;;;5031462;28;20044;-63
2022/03/28 11:07:03;;;;;;;22.75;9.85;;;;;;;;;;5027457;28;20048;-63
2022/03/28 11:09:34;;;;;;;21.70;9.77;;;;;;;;;;5027795;28;20174;-63
2022/03/28 11:12:01;;;;;;;20.67;9.85;;;;;;;;;;5029650;28;20080;-63
2022/03/28 11:14:53;;;;;;;24.42;11.07;;;;;;;;;;5043952;28;20502;-64
2022/03/28 11:17:22;;;;;;;19.55;9.30;;;;;;;;;;5034911;28;20041;-63
2022/03/28 11:19:53;;;;;;;18.17;10.35;;;;;;;;;;5030644;28;20055;-63
2022/03/28 11:22:19;;;;;;;19.30;9.77;;;;;;;;;;5030933;28;20044;-63
2022/03/28 11:24:54;;;;;;;21.95;10.32;;;;;;;;;;5031567;28;20051;-63
2022/03/28 11:27:21;;;;;;;23.65;10.93;;;;;;;;;;5034667;28;20605;-64
2022/03/28 11:29:48;;;;;;;21.17;10.82;;;;;;;;;;5028900;28;20049;-63
2022/03/28 11:32:16;;;;;;;18.20;10.15;;;;;;;;;;5034038;28;20037;-64
2022/03/28 11:34:57;;;;;;;17.25;10.63;;;;;;;;;;5033421;28;20052;-64
2022/03/28 11:37:25;;;;;;;21.98;10.10;;;;;;;;;;5030987;28;20435;-64
2022/03/28 11:39:56;;;;;;;18.23;11.00;;;;;;;;;;5033347;28;20045;-63
2022/03/28 11:42:24;;;;;;;18.80;9.68;;;;;;;;;;5032562;28;20283;-63
2022/03/28 11:44:51;;;;;;;20.65;10.10;;;;;;;;;;5026937;28;20056;-63
2022/03/28 11:47:18;;;;;;;18.30;10.75;;;;;;;;;;5037470;28;20049;-63
2022/03/28 11:49:58;;;;;;;18.52;10.02;;;;;;;;;;5043540;28;20793;-63
2022/03/28 11:52:25;;;;;;;19.35;10.10;;;;;;;;;;5043706;28;20049;-63
2022/03/28 11:54:52;;;;;;;18.02;9.30;;;;;;;;;;5043726;28;20072;-63
2022/03/28 12:00:11;;;;;;;13.52;8.88;;;;;;;;;;5043581;28;20068;-64
2022/03/28 12:02:56;;;;;;;15.90;8.57;;;;;;;;;;5025723;28;20045;-63
2022/03/28 12:05:24;;;;;;;16.95;9.43;;;;;;;;;;5043946;28;20110;-63
2022/03/28 12:07:52;;;;;;;16.80;9.40;;;;;;;;;;5025077;28;20435;-63
2022/03/28 12:10:18;;;;;;;20.33;9.90;;;;;;;;;;5043297;28;20041;-63
2022/03/28 12:12:45;;;;;;;19.98;9.50;;;;;;;;;;5043238;28;20602;-63
2022/03/28 12:15:12;;;;;;;16.20;9.00;;;;;;;;;;5043449;28;20040;-64
2022/03/28 12:17:38;;;;;;;15.80;8.75;;;;;;;;;;5042950;28;20388;-64
2022/03/28 12:20:05;;;;;;;16.88;8.98;;;;;;;;;;5042823;28;20047;-63
2022/03/28 12:22:44;;;;;;;16.33;9.37;;;;;;;;;;5043237;28;20051;-64
2022/03/28 12:25:22;;;;;;;15.70;8.50;;;;;;;;;;5043045;28;20126;-64
2022/03/28 12:27:55;;;;;;;17.63;8.95;;;;;;;;;;5042971;28;20098;-64
2022/03/28 12:30:29;;;;;;;14.55;8.65;;;;;;;;;;5043413;28;20045;-64
2022/03/28 12:32:56;;;;;;;16.17;9.02;;;;;;;;;;5042776;28;20052;-64
2022/03/28 12:35:23;;;;;;;18.48;8.52;;;;;;;;;;5042680;28;20043;-64
2022/03/28 12:38:04;;;;;;;15.85;8.85;;;;;;;;;;5028639;28;20613;-64
2022/03/28 12:40:31;;;;;;;19.10;8.52;;;;;;;;;;5026079;28;20063;-64
2022/03/28 12:42:59;;;;;;;15.60;9.05;;;;;;;;;;5027778;28;20049;-64
2022/03/28 12:45:26;;;;;;;15.20;8.90;;;;;;;;;;5029375;28;20060;-65
2022/03/28 12:47:56;;;;;;;15.70;9.00;;;;;;;;;;5034078;28;20041;-65
2022/03/28 12:50:26;;;;;;;14.43;8.93;;;;;;;;;;5032840;28;20415;-64
2022/03/28 12:52:54;;;;;;;16.77;9.20;;;;;;;;;;5013543;28;20476;-64
2022/03/28 12:55:26;;;;;;;16.23;8.93;;;;;;;;;;5031420;28;20053;-64
2022/03/28 12:57:55;;;;;;;13.65;8.85;;;;;;;;;;5027650;28;20088;-64
2022/03/28 13:00:25;;;;;;;13.50;8.48;;;;;;;;;;5031522;28;20041;-65
2022/03/28 13:02:53;;;;;;;16.42;8.88;;;;;;;;;;5031649;28;20053;-65
2022/03/28 13:05:19;;;;;;;14.00;8.35;;;;;;;;;;5028693;28;20120;-65
2022/03/28 13:07:47;;;;;;;15.30;9.15;;;;;;;;;;5027768;28;20170;-65
2022/03/28 13:10:20;;;;;;;15.98;9.35;;;;;;;;;;5015106;28;20103;-65
2022/03/28 13:12:47;;;;;;;13.90;9.27;;;;;;;;;;5032427;28;20076;-65
2022/03/28 13:15:17;;;;;;;16.13;9.48;;;;;;;;;;5033739;28;20041;-65
2022/03/28 13:17:44;;;;;;;17.50;9.18;;;;;;;;;;5031028;28;20037;-65
2022/03/28 13:20:17;;;;;;;16.60;8.20;;;;;;;;;;5036214;28;20047;-65
2022/03/28 13:22:46;;;;;;;12.75;8.65;;;;;;;;;;5034969;28;20037;-65
2022/03/28 13:25:17;;;;;;;18.50;9.07;;;;;;;;;;5016427;28;20083;-64
2022/03/28 13:28:06;;;;;;;14.30;9.02;;;;;;;;;;5038123;28;20044;-64
2022/03/28 13:30:35;;;;;;;12.57;8.43;;;;;;;;;;5036784;28;20122;-65
2022/03/28 13:33:04;;;;;;;15.57;8.85;;;;;;;;;;5033559;28;20053;-64
2022/03/28 13:35:30;;;;;;;13.25;8.82;;;;;;;;;;5032458;28;20048;-64
2022/03/28 13:37:58;;;;;;;18.38;9.40;;;;;;;;;;5034927;28;20045;-64
2022/03/28 13:40:24;;;;;;;14.55;9.45;;;;;;;;;;5033978;28;20071;-64
2022/03/28 13:42:51;;;;;;;16.30;8.57;;;;;;;;;;5033531;28;20087;-64
2022/03/28 13:45:18;;;;;;;14.43;9.35;;;;;;;;;;5033778;28;20045;-64
2022/03/28 13:47:45;;;;;;;19.55;9.82;;;;;;;;;;5030746;28;20088;-64
2022/03/28 13:50:12;;;;;;;14.80;10.30;;;;;;;;;;5033763;28;20094;-64
2022/03/28 13:52:38;;;;;;;17.95;9.75;;;;;;;;;;5013356;28;20033;-65
2022/03/28 13:55:05;;;;;;;15.80;10.48;;;;;;;;;;5032415;28;20415;-64
2022/03/28 13:57:31;;;;;;;18.23;9.88;;;;;;;;;;5010659;28;20048;-65
2022/03/28 13:59:58;;;;;;;15.68;9.63;;;;;;;;;;5035065;28;20533;-65
2022/03/28 14:02:24;;;;;;;17.38;10.73;;;;;;;;;;5032598;28;20048;-64
2022/03/28 14:04:51;;;;;;;17.58;10.48;;;;;;;;;;5033462;28;20550;-65
2022/03/28 14:07:17;;;;;;;18.73;10.82;;;;;;;;;;5029125;28;20142;-65
2022/03/28 14:09:43;;;;;;;16.10;11.10;;;;;;;;;;5033823;28;20052;-65
2022/03/28 14:12:09;;;;;;;22.17;11.02;;;;;;;;;;5032493;28;20041;-65
2022/03/28 14:14:35;;;;;;;19.40;11.60;;;;;;;;;;5032529;28;20174;-66
2022/03/28 14:17:02;;;;;;;22.55;11.57;;;;;;;;;;5034213;28;20045;-65
2022/03/28 14:19:29;;;;;;;15.23;10.63;;;;;;;;;;5033382;28;20552;-66
2022/03/28 14:21:56;;;;;;;15.32;10.40;;;;;;;;;;5031027;28;20087;-65
2022/03/28 14:24:22;;;;;;;17.80;10.60;;;;;;;;;;5035586;28;20115;-66
2022/03/28 14:26:48;;;;;;;16.30;10.25;;;;;;;;;;5032457;28;20053;-65
2022/03/28 14:29:15;;;;;;;22.98;10.90;;;;;;;;;;5033530;28;20058;-65
2022/03/28 14:31:41;;;;;;;21.98;12.10;;;;;;;;;;5032547;28;20111;-65